< < Back
Terminal Aerodrome Forecast


Current Version              Previous Versions:   1  2  3  4  5  6  7  8  9  

Terminal Aerodrome Forecast

321
FTUS42 KMLB 282055 AAA
TAFDAB
TAF AMD
KDAB 282055Z 2821/2918 VRB04KT 6SM -RA BR SCT020 BKN040 OVC150
      TEMPO 2821/2823 4SM RA BR BKN025 OVC040
     FM282300 24009KT P6SM SCT025 SCT080 BKN250
     FM290300 23005KT P6SM SCT005 BKN250
     FM291400 25008KT P6SM VCSH SCT010 SCT025=

Latest METAR

348
SAUS80 KWBC 291100 CCA
MTRDAB
METAR KDAB 291053Z 28005KT 4SM BR FEW002 FEW030 BKN200 24/23 A2994 RMK
AO2 SLP138 T02390233


USA.gov is the U.S. government's official web portal to all federal, state and local government web resources and services.